Accueil
METAR-TAF:

METAR-TAF

Aéroports :

Sisseton Municipal Airport

Sisseton, Dakota du Sud, États-Unis

latitude: 45-40-08N, longitude: 096-59-29W, altitude: 354 m

Observation

Le bulletin a été fait il y a 43 minutes, à 20:56 UTC
Vent 7 kt de est/nord-est
Température 5°C
Humidité 87%
Pression 1009 hPa

METAR: K8D3 202056Z AUTO 06007KT 05/03 A2980 RMK AO1 SLP105 T00500028 56017

Heure: 15:39 (21:39 UTC)


TAF: absent

Observations et prévisions météorologiques de plus de 4000 aéroports (messages METAR et TAF).

Les stations disponibles sont représentées par des disques jaunes et rouges sur la carte.

Passer la souris dessus pour voir le nom de la station.

Cliquer dessus pour voir les observations et prévisions météorologiques.

Pour changer de carte: cliquez sur les boutons verts avec une croix noire pour zoomer, sur le bouton vert avec un tiret pour effectuer un zoom arrière, ou sur les flèches vertes pour les cartes adjacentes.


METAR-TAF: